sensor_id;sensor_type;location;lat;lon;timestamp;temperature;humidity
42037;DHT22;75222;52.004;5.908;2024-02-04T00:00:26;11.60;99.90
42037;DHT22;75222;52.004;5.908;2024-02-04T00:02:52;11.60;99.90
42037;DHT22;75222;52.004;5.908;2024-02-04T00:05:17;11.60;99.90
42037;DHT22;75222;52.004;5.908;2024-02-04T00:07:44;11.60;99.90
42037;DHT22;75222;52.004;5.908;2024-02-04T00:10:10;11.60;99.90
42037;DHT22;75222;52.004;5.908;2024-02-04T00:12:36;11.60;99.90
42037;DHT22;75222;52.004;5.908;2024-02-04T00:15:03;11.60;99.90
42037;DHT22;75222;52.004;5.908;2024-02-04T00:17:30;11.60;99.90
42037;DHT22;75222;52.004;5.908;2024-02-04T00:19:58;11.60;99.90
42037;DHT22;75222;52.004;5.908;2024-02-04T00:22:24;11.60;99.90
42037;DHT22;75222;52.004;5.908;2024-02-04T00:24:50;11.60;99.90
42037;DHT22;75222;52.004;5.908;2024-02-04T00:27:15;11.60;99.90
42037;DHT22;75222;52.004;5.908;2024-02-04T00:29:41;11.60;99.90
42037;DHT22;75222;52.004;5.908;2024-02-04T00:32:06;11.60;99.90
42037;DHT22;75222;52.004;5.908;2024-02-04T00:34:32;11.60;99.90
42037;DHT22;75222;52.004;5.908;2024-02-04T00:36:57;11.60;99.90
42037;DHT22;75222;52.004;5.908;2024-02-04T00:39:23;11.60;99.90
42037;DHT22;75222;52.004;5.908;2024-02-04T00:41:48;11.60;99.90
42037;DHT22;75222;52.004;5.908;2024-02-04T00:44:14;11.60;99.90
42037;DHT22;75222;52.004;5.908;2024-02-04T00:46:39;11.60;99.90
42037;DHT22;75222;52.004;5.908;2024-02-04T00:49:05;11.60;99.90
42037;DHT22;75222;52.004;5.908;2024-02-04T00:51:31;11.60;99.90
42037;DHT22;75222;52.004;5.908;2024-02-04T00:53:57;11.60;99.90
42037;DHT22;75222;52.004;5.908;2024-02-04T00:56:22;11.60;99.90
42037;DHT22;75222;52.004;5.908;2024-02-04T00:58:48;11.70;99.90
42037;DHT22;75222;52.004;5.908;2024-02-04T01:01:14;11.60;99.90
42037;DHT22;75222;52.004;5.908;2024-02-04T01:03:39;11.70;99.90
42037;DHT22;75222;52.004;5.908;2024-02-04T01:06:05;11.60;99.90
42037;DHT22;75222;52.004;5.908;2024-02-04T01:08:30;11.70;99.90
42037;DHT22;75222;52.004;5.908;2024-02-04T01:10:56;11.60;99.90
42037;DHT22;75222;52.004;5.908;2024-02-04T01:13:22;11.60;99.90
42037;DHT22;75222;52.004;5.908;2024-02-04T01:15:47;11.60;99.90
42037;DHT22;75222;52.004;5.908;2024-02-04T01:18:13;11.70;99.90
42037;DHT22;75222;52.004;5.908;2024-02-04T01:20:38;11.70;99.90
42037;DHT22;75222;52.004;5.908;2024-02-04T01:23:04;11.60;99.90
42037;DHT22;75222;52.004;5.908;2024-02-04T01:25:29;11.60;99.90
42037;DHT22;75222;52.004;5.908;2024-02-04T01:27:55;11.60;99.90
42037;DHT22;75222;52.004;5.908;2024-02-04T01:30:21;11.70;99.90
42037;DHT22;75222;52.004;5.908;2024-02-04T01:32:46;11.70;99.90
42037;DHT22;75222;52.004;5.908;2024-02-04T01:35:12;11.70;99.90
42037;DHT22;75222;52.004;5.908;2024-02-04T01:37:37;11.70;99.90
42037;DHT22;75222;52.004;5.908;2024-02-04T01:40:04;11.70;99.90
42037;DHT22;75222;52.004;5.908;2024-02-04T01:42:31;11.70;99.90
42037;DHT22;75222;52.004;5.908;2024-02-04T01:44:56;11.70;99.90
42037;DHT22;75222;52.004;5.908;2024-02-04T01:47:22;11.70;99.90
42037;DHT22;75222;52.004;5.908;2024-02-04T01:49:48;11.70;99.90
42037;DHT22;75222;52.004;5.908;2024-02-04T01:52:14;11.70;99.90
42037;DHT22;75222;52.004;5.908;2024-02-04T01:54:42;11.70;99.90
42037;DHT22;75222;52.004;5.908;2024-02-04T01:57:10;11.70;99.90
42037;DHT22;75222;52.004;5.908;2024-02-04T01:59:38;11.70;99.90
42037;DHT22;75222;52.004;5.908;2024-02-04T02:02:05;11.70;99.90
42037;DHT22;75222;52.004;5.908;2024-02-04T02:04:31;11.70;99.90
42037;DHT22;75222;52.004;5.908;2024-02-04T02:06:57;11.70;99.90
42037;DHT22;75222;52.004;5.908;2024-02-04T02:09:25;11.80;99.90
42037;DHT22;75222;52.004;5.908;2024-02-04T02:12:01;11.80;99.90
42037;DHT22;75222;52.004;5.908;2024-02-04T02:14:33;11.80;99.90
42037;DHT22;75222;52.004;5.908;2024-02-04T02:17:03;11.80;99.90
42037;DHT22;75222;52.004;5.908;2024-02-04T02:24:50;11.80;99.90
42037;DHT22;75222;52.004;5.908;2024-02-04T02:27:16;11.70;99.90
42037;DHT22;75222;52.004;5.908;2024-02-04T02:29:42;11.80;99.90
42037;DHT22;75222;52.004;5.908;2024-02-04T02:32:07;11.70;99.90
42037;DHT22;75222;52.004;5.908;2024-02-04T02:34:33;11.80;99.90
42037;DHT22;75222;52.004;5.908;2024-02-04T02:37:29;11.80;99.90
42037;DHT22;75222;52.004;5.908;2024-02-04T02:39:59;11.80;99.90
42037;DHT22;75222;52.004;5.908;2024-02-04T02:42:25;11.70;99.90
42037;DHT22;75222;52.004;5.908;2024-02-04T02:44:53;11.80;99.90
42037;DHT22;75222;52.004;5.908;2024-02-04T02:47:19;11.80;99.90
42037;DHT22;75222;52.004;5.908;2024-02-04T02:49:46;11.70;99.90
42037;DHT22;75222;52.004;5.908;2024-02-04T02:52:11;11.70;99.90
42037;DHT22;75222;52.004;5.908;2024-02-04T02:54:37;11.70;99.90
42037;DHT22;75222;52.004;5.908;2024-02-04T02:57:02;11.70;99.90
42037;DHT22;75222;52.004;5.908;2024-02-04T02:59:28;11.70;99.90
42037;DHT22;75222;52.004;5.908;2024-02-04T03:01:53;11.70;99.90
42037;DHT22;75222;52.004;5.908;2024-02-04T03:04:19;11.70;99.90
42037;DHT22;75222;52.004;5.908;2024-02-04T03:06:45;11.70;99.90
42037;DHT22;75222;52.004;5.908;2024-02-04T03:09:10;11.70;99.90
42037;DHT22;75222;52.004;5.908;2024-02-04T03:11:36;11.70;99.90
42037;DHT22;75222;52.004;5.908;2024-02-04T03:14:03;11.70;99.90
42037;DHT22;75222;52.004;5.908;2024-02-04T03:16:28;11.70;99.90
42037;DHT22;75222;52.004;5.908;2024-02-04T03:18:54;11.70;99.90
42037;DHT22;75222;52.004;5.908;2024-02-04T03:21:19;11.70;99.90
42037;DHT22;75222;52.004;5.908;2024-02-04T03:23:45;11.70;99.90
42037;DHT22;75222;52.004;5.908;2024-02-04T03:26:11;11.60;99.90
42037;DHT22;75222;52.004;5.908;2024-02-04T03:28:41;11.60;99.90
42037;DHT22;75222;52.004;5.908;2024-02-04T03:31:07;11.60;99.90
42037;DHT22;75222;52.004;5.908;2024-02-04T03:33:32;11.60;99.90
42037;DHT22;75222;52.004;5.908;2024-02-04T03:35:58;11.60;99.90
42037;DHT22;75222;52.004;5.908;2024-02-04T03:38:23;11.60;99.90
42037;DHT22;75222;52.004;5.908;2024-02-04T03:40:49;11.50;99.90
42037;DHT22;75222;52.004;5.908;2024-02-04T03:43:15;11.50;99.90
42037;DHT22;75222;52.004;5.908;2024-02-04T03:45:40;11.50;99.90
42037;DHT22;75222;52.004;5.908;2024-02-04T03:48:06;11.50;99.90
42037;DHT22;75222;52.004;5.908;2024-02-04T03:50:32;11.40;99.90
42037;DHT22;75222;52.004;5.908;2024-02-04T03:52:57;11.40;99.90
42037;DHT22;75222;52.004;5.908;2024-02-04T03:55:23;11.40;99.90
42037;DHT22;75222;52.004;5.908;2024-02-04T03:57:49;11.40;99.90
42037;DHT22;75222;52.004;5.908;2024-02-04T04:00:15;11.30;99.90
42037;DHT22;75222;52.004;5.908;2024-02-04T04:02:41;11.30;99.90
42037;DHT22;75222;52.004;5.908;2024-02-04T04:05:11;11.30;99.90
42037;DHT22;75222;52.004;5.908;2024-02-04T04:07:38;11.30;99.90
42037;DHT22;75222;52.004;5.908;2024-02-04T04:10:05;11.20;99.90
42037;DHT22;75222;52.004;5.908;2024-02-04T04:12:30;11.20;99.90
42037;DHT22;75222;52.004;5.908;2024-02-04T04:14:56;11.20;99.90
42037;DHT22;75222;52.004;5.908;2024-02-04T04:17:21;11.20;99.90
42037;DHT22;75222;52.004;5.908;2024-02-04T04:19:47;11.20;99.90
42037;DHT22;75222;52.004;5.908;2024-02-04T04:22:12;11.20;99.90
42037;DHT22;75222;52.004;5.908;2024-02-04T04:24:38;11.20;99.90
42037;DHT22;75222;52.004;5.908;2024-02-04T04:27:04;11.20;99.90
42037;DHT22;75222;52.004;5.908;2024-02-04T04:29:29;11.20;99.90
42037;DHT22;75222;52.004;5.908;2024-02-04T04:31:55;11.20;99.90
42037;DHT22;75222;52.004;5.908;2024-02-04T04:34:20;11.20;99.90
42037;DHT22;75222;52.004;5.908;2024-02-04T04:36:46;11.20;99.90
42037;DHT22;75222;52.004;5.908;2024-02-04T04:39:12;11.20;99.90
42037;DHT22;75222;52.004;5.908;2024-02-04T04:41:39;11.20;99.90
42037;DHT22;75222;52.004;5.908;2024-02-04T04:44:05;11.20;99.80
42037;DHT22;75222;52.004;5.908;2024-02-04T04:46:30;11.20;99.80
42037;DHT22;75222;52.004;5.908;2024-02-04T04:48:56;11.20;99.80
42037;DHT22;75222;52.004;5.908;2024-02-04T04:51:23;11.20;99.90
42037;DHT22;75222;52.004;5.908;2024-02-04T04:53:49;11.20;99.80
42037;DHT22;75222;52.004;5.908;2024-02-04T04:56:15;11.20;99.80
42037;DHT22;75222;52.004;5.908;2024-02-04T04:58:40;11.10;99.70
42037;DHT22;75222;52.004;5.908;2024-02-04T05:01:06;11.10;99.80
42037;DHT22;75222;52.004;5.908;2024-02-04T05:03:31;11.10;99.80
42037;DHT22;75222;52.004;5.908;2024-02-04T05:05:57;11.10;99.80
42037;DHT22;75222;52.004;5.908;2024-02-04T05:08:23;11.10;99.80
42037;DHT22;75222;52.004;5.908;2024-02-04T05:10:48;11.10;99.80
42037;DHT22;75222;52.004;5.908;2024-02-04T05:13:14;11.00;99.90
42037;DHT22;75222;52.004;5.908;2024-02-04T05:15:39;11.00;99.90
42037;DHT22;75222;52.004;5.908;2024-02-04T05:18:05;11.00;99.80
42037;DHT22;75222;52.004;5.908;2024-02-04T05:20:31;11.00;99.90
42037;DHT22;75222;52.004;5.908;2024-02-04T05:22:56;10.90;99.80
42037;DHT22;75222;52.004;5.908;2024-02-04T05:25:23;10.90;99.90
42037;DHT22;75222;52.004;5.908;2024-02-04T05:27:49;10.90;99.90
42037;DHT22;75222;52.004;5.908;2024-02-04T05:30:15;10.90;99.90
42037;DHT22;75222;52.004;5.908;2024-02-04T05:32:41;10.90;99.90
42037;DHT22;75222;52.004;5.908;2024-02-04T05:35:07;10.90;99.90
42037;DHT22;75222;52.004;5.908;2024-02-04T05:37:33;10.90;99.90
42037;DHT22;75222;52.004;5.908;2024-02-04T05:39:59;10.90;99.90
42037;DHT22;75222;52.004;5.908;2024-02-04T05:42:24;10.90;99.80
42037;DHT22;75222;52.004;5.908;2024-02-04T05:44:50;10.90;99.80
42037;DHT22;75222;52.004;5.908;2024-02-04T05:47:16;10.90;99.80
42037;DHT22;75222;52.004;5.908;2024-02-04T05:49:41;10.90;99.70
42037;DHT22;75222;52.004;5.908;2024-02-04T05:52:07;10.90;99.70
42037;DHT22;75222;52.004;5.908;2024-02-04T05:54:37;10.90;99.60
42037;DHT22;75222;52.004;5.908;2024-02-04T05:57:03;10.90;99.60
42037;DHT22;75222;52.004;5.908;2024-02-04T05:59:28;10.90;99.70
42037;DHT22;75222;52.004;5.908;2024-02-04T06:01:54;10.90;99.90
42037;DHT22;75222;52.004;5.908;2024-02-04T06:04:20;10.80;99.60
42037;DHT22;75222;52.004;5.908;2024-02-04T06:06:46;10.80;99.70
42037;DHT22;75222;52.004;5.908;2024-02-04T06:09:11;10.80;99.80
42037;DHT22;75222;52.004;5.908;2024-02-04T06:11:37;10.80;99.90
42037;DHT22;75222;52.004;5.908;2024-02-04T06:14:02;10.80;99.80
42037;DHT22;75222;52.004;5.908;2024-02-04T06:16:28;10.80;99.70
42037;DHT22;75222;52.004;5.908;2024-02-04T06:18:53;10.80;99.70
42037;DHT22;75222;52.004;5.908;2024-02-04T06:21:22;10.80;99.70
42037;DHT22;75222;52.004;5.908;2024-02-04T06:23:48;10.80;99.70
42037;DHT22;75222;52.004;5.908;2024-02-04T06:26:13;10.80;99.80
42037;DHT22;75222;52.004;5.908;2024-02-04T06:28:39;10.80;99.70
42037;DHT22;75222;52.004;5.908;2024-02-04T06:31:04;10.80;99.70
42037;DHT22;75222;52.004;5.908;2024-02-04T06:33:30;10.80;99.60
42037;DHT22;75222;52.004;5.908;2024-02-04T06:35:55;10.70;99.60
42037;DHT22;75222;52.004;5.908;2024-02-04T06:38:21;10.70;99.70
42037;DHT22;75222;52.004;5.908;2024-02-04T06:40:46;10.70;99.70
42037;DHT22;75222;52.004;5.908;2024-02-04T06:43:12;10.80;99.70
42037;DHT22;75222;52.004;5.908;2024-02-04T06:45:38;10.80;99.60
42037;DHT22;75222;52.004;5.908;2024-02-04T06:48:03;10.80;99.60
42037;DHT22;75222;52.004;5.908;2024-02-04T06:50:29;10.80;99.60
42037;DHT22;75222;52.004;5.908;2024-02-04T06:52:55;10.80;99.60
42037;DHT22;75222;52.004;5.908;2024-02-04T06:55:20;10.80;99.60
42037;DHT22;75222;52.004;5.908;2024-02-04T06:57:46;10.80;99.60
42037;DHT22;75222;52.004;5.908;2024-02-04T07:00:12;10.80;99.70
42037;DHT22;75222;52.004;5.908;2024-02-04T07:02:37;10.80;99.60
42037;DHT22;75222;52.004;5.908;2024-02-04T07:05:04;10.90;99.60
42037;DHT22;75222;52.004;5.908;2024-02-04T07:07:29;10.90;99.50
42037;DHT22;75222;52.004;5.908;2024-02-04T07:09:57;10.90;99.50
42037;DHT22;75222;52.004;5.908;2024-02-04T07:12:22;11.00;99.40
42037;DHT22;75222;52.004;5.908;2024-02-04T07:14:48;11.00;99.40
42037;DHT22;75222;52.004;5.908;2024-02-04T07:17:13;10.90;99.30
42037;DHT22;75222;52.004;5.908;2024-02-04T07:19:39;10.90;99.40
42037;DHT22;75222;52.004;5.908;2024-02-04T07:22:04;10.90;99.50
42037;DHT22;75222;52.004;5.908;2024-02-04T07:24:30;10.90;99.50
42037;DHT22;75222;52.004;5.908;2024-02-04T07:26:56;10.90;99.60
42037;DHT22;75222;52.004;5.908;2024-02-04T07:29:21;11.00;99.60
42037;DHT22;75222;52.004;5.908;2024-02-04T07:31:47;10.90;99.60
42037;DHT22;75222;52.004;5.908;2024-02-04T07:34:12;11.00;99.60
42037;DHT22;75222;52.004;5.908;2024-02-04T07:36:38;11.00;99.70
42037;DHT22;75222;52.004;5.908;2024-02-04T07:39:03;11.00;99.70
42037;DHT22;75222;52.004;5.908;2024-02-04T07:41:30;11.00;99.80
42037;DHT22;75222;52.004;5.908;2024-02-04T07:43:56;11.00;99.80
42037;DHT22;75222;52.004;5.908;2024-02-04T07:46:22;11.00;99.80
42037;DHT22;75222;52.004;5.908;2024-02-04T07:48:48;11.00;99.80
42037;DHT22;75222;52.004;5.908;2024-02-04T07:51:13;11.00;99.90
42037;DHT22;75222;52.004;5.908;2024-02-04T07:53:39;11.00;99.90
42037;DHT22;75222;52.004;5.908;2024-02-04T07:56:05;11.10;99.90
42037;DHT22;75222;52.004;5.908;2024-02-04T07:58:32;11.10;99.90
42037;DHT22;75222;52.004;5.908;2024-02-04T08:00:58;11.10;99.90
42037;DHT22;75222;52.004;5.908;2024-02-04T08:03:23;11.10;99.90
42037;DHT22;75222;52.004;5.908;2024-02-04T08:05:49;11.10;99.90
42037;DHT22;75222;52.004;5.908;2024-02-04T08:08:15;11.10;99.90
42037;DHT22;75222;52.004;5.908;2024-02-04T08:10:40;11.10;99.90
42037;DHT22;75222;52.004;5.908;2024-02-04T08:13:06;11.20;99.90
42037;DHT22;75222;52.004;5.908;2024-02-04T08:15:32;11.20;99.90
42037;DHT22;75222;52.004;5.908;2024-02-04T08:17:57;11.20;99.90
42037;DHT22;75222;52.004;5.908;2024-02-04T08:20:23;11.20;99.90
42037;DHT22;75222;52.004;5.908;2024-02-04T08:22:48;11.20;99.90
42037;DHT22;75222;52.004;5.908;2024-02-04T08:25:14;11.20;99.90
42037;DHT22;75222;52.004;5.908;2024-02-04T08:27:40;11.20;99.90
42037;DHT22;75222;52.004;5.908;2024-02-04T08:30:06;11.20;99.80
42037;DHT22;75222;52.004;5.908;2024-02-04T08:32:31;11.20;99.70
42037;DHT22;75222;52.004;5.908;2024-02-04T08:34:57;11.20;99.90
42037;DHT22;75222;52.004;5.908;2024-02-04T08:37:22;11.20;99.60
42037;DHT22;75222;52.004;5.908;2024-02-04T08:39:48;11.30;99.60
42037;DHT22;75222;52.004;5.908;2024-02-04T08:42:14;11.20;99.60
42037;DHT22;75222;52.004;5.908;2024-02-04T08:44:40;11.30;99.60
42037;DHT22;75222;52.004;5.908;2024-02-04T08:47:06;11.30;99.50
42037;DHT22;75222;52.004;5.908;2024-02-04T08:49:35;11.30;99.50
42037;DHT22;75222;52.004;5.908;2024-02-04T08:52:01;11.30;99.50
42037;DHT22;75222;52.004;5.908;2024-02-04T08:54:27;11.30;99.60
42037;DHT22;75222;52.004;5.908;2024-02-04T08:56:53;11.30;99.50
42037;DHT22;75222;52.004;5.908;2024-02-04T08:59:18;11.30;99.60
42037;DHT22;75222;52.004;5.908;2024-02-04T09:01:44;11.30;99.60
42037;DHT22;75222;52.004;5.908;2024-02-04T09:04:09;11.30;99.50
42037;DHT22;75222;52.004;5.908;2024-02-04T09:06:35;11.30;99.50
42037;DHT22;75222;52.004;5.908;2024-02-04T09:09:00;11.30;99.40
42037;DHT22;75222;52.004;5.908;2024-02-04T09:11:26;11.30;99.40
42037;DHT22;75222;52.004;5.908;2024-02-04T09:13:51;11.30;99.40
42037;DHT22;75222;52.004;5.908;2024-02-04T09:16:17;11.20;99.50
42037;DHT22;75222;52.004;5.908;2024-02-04T09:18:43;11.20;99.50
42037;DHT22;75222;52.004;5.908;2024-02-04T09:21:08;11.20;99.50
42037;DHT22;75222;52.004;5.908;2024-02-04T09:23:34;11.30;99.60
42037;DHT22;75222;52.004;5.908;2024-02-04T09:25:59;11.30;99.50
42037;DHT22;75222;52.004;5.908;2024-02-04T09:28:25;11.30;99.50
42037;DHT22;75222;52.004;5.908;2024-02-04T09:30:50;11.30;99.50
42037;DHT22;75222;52.004;5.908;2024-02-04T09:33:16;11.20;99.60
42037;DHT22;75222;52.004;5.908;2024-02-04T09:35:42;11.30;99.60
42037;DHT22;75222;52.004;5.908;2024-02-04T09:38:07;11.30;99.60
42037;DHT22;75222;52.004;5.908;2024-02-04T09:40:33;11.30;99.60
42037;DHT22;75222;52.004;5.908;2024-02-04T09:43:00;11.30;99.60
42037;DHT22;75222;52.004;5.908;2024-02-04T09:45:26;11.30;99.60
42037;DHT22;75222;52.004;5.908;2024-02-04T09:47:53;11.40;99.60
42037;DHT22;75222;52.004;5.908;2024-02-04T09:50:20;11.40;99.50
42037;DHT22;75222;52.004;5.908;2024-02-04T09:52:49;11.40;99.50
42037;DHT22;75222;52.004;5.908;2024-02-04T09:55:16;11.40;99.50
42037;DHT22;75222;52.004;5.908;2024-02-04T09:57:44;11.50;99.40
42037;DHT22;75222;52.004;5.908;2024-02-04T10:00:10;11.50;99.50
42037;DHT22;75222;52.004;5.908;2024-02-04T10:02:36;11.50;99.40
42037;DHT22;75222;52.004;5.908;2024-02-04T10:05:02;11.60;99.50
42037;DHT22;75222;52.004;5.908;2024-02-04T10:07:28;11.60;99.40
42037;DHT22;75222;52.004;5.908;2024-02-04T10:09:55;11.60;99.40
42037;DHT22;75222;52.004;5.908;2024-02-04T10:12:21;11.60;99.40
42037;DHT22;75222;52.004;5.908;2024-02-04T10:14:48;11.70;99.40
42037;DHT22;75222;52.004;5.908;2024-02-04T10:17:15;11.70;99.40
42037;DHT22;75222;52.004;5.908;2024-02-04T10:19:40;11.70;99.40
42037;DHT22;75222;52.004;5.908;2024-02-04T10:22:06;11.80;99.40
42037;DHT22;75222;52.004;5.908;2024-02-04T10:24:31;11.80;99.30
42037;DHT22;75222;52.004;5.908;2024-02-04T10:26:57;11.90;99.30
42037;DHT22;75222;52.004;5.908;2024-02-04T10:29:24;11.90;99.20
42037;DHT22;75222;52.004;5.908;2024-02-04T10:31:54;11.90;99.10
42037;DHT22;75222;52.004;5.908;2024-02-04T10:34:20;11.90;99.10
42037;DHT22;75222;52.004;5.908;2024-02-04T10:36:45;11.90;99.10
42037;DHT22;75222;52.004;5.908;2024-02-04T10:39:11;11.90;99.10
42037;DHT22;75222;52.004;5.908;2024-02-04T10:41:42;11.90;99.10
42037;DHT22;75222;52.004;5.908;2024-02-04T10:44:11;12.00;99.10
42037;DHT22;75222;52.004;5.908;2024-02-04T10:46:40;12.00;99.10
42037;DHT22;75222;52.004;5.908;2024-02-04T10:49:06;12.00;99.10
42037;DHT22;75222;52.004;5.908;2024-02-04T10:51:36;12.00;99.10
42037;DHT22;75222;52.004;5.908;2024-02-04T10:54:05;12.00;99.00
42037;DHT22;75222;52.004;5.908;2024-02-04T10:56:43;12.10;99.00
42037;DHT22;75222;52.004;5.908;2024-02-04T10:59:16;12.10;99.00
42037;DHT22;75222;52.004;5.908;2024-02-04T11:01:46;12.10;99.10
42037;DHT22;75222;52.004;5.908;2024-02-04T11:04:17;12.20;98.70
42037;DHT22;75222;52.004;5.908;2024-02-04T11:06:44;12.20;98.60
42037;DHT22;75222;52.004;5.908;2024-02-04T11:09:11;12.20;98.60
42037;DHT22;75222;52.004;5.908;2024-02-04T11:11:38;12.20;98.70
42037;DHT22;75222;52.004;5.908;2024-02-04T11:14:08;12.20;98.40
42037;DHT22;75222;52.004;5.908;2024-02-04T11:19:17;12.20;98.30
42037;DHT22;75222;52.004;5.908;2024-02-04T11:22:05;12.20;98.30
42037;DHT22;75222;52.004;5.908;2024-02-04T11:27:06;12.20;98.20
42037;DHT22;75222;52.004;5.908;2024-02-04T11:29:31;12.10;98.10
42037;DHT22;75222;52.004;5.908;2024-02-04T11:31:58;12.10;98.20
42037;DHT22;75222;52.004;5.908;2024-02-04T11:34:24;12.10;98.30
42037;DHT22;75222;52.004;5.908;2024-02-04T11:36:49;12.00;98.40
42037;DHT22;75222;52.004;5.908;2024-02-04T11:39:18;12.10;98.50
42037;DHT22;75222;52.004;5.908;2024-02-04T11:41:47;12.00;98.50
42037;DHT22;75222;52.004;5.908;2024-02-04T11:44:20;12.00;98.60
42037;DHT22;75222;52.004;5.908;2024-02-04T11:46:47;12.00;98.70
42037;DHT22;75222;52.004;5.908;2024-02-04T11:49:19;11.90;98.70
42037;DHT22;75222;52.004;5.908;2024-02-04T11:51:48;12.00;98.80
42037;DHT22;75222;52.004;5.908;2024-02-04T11:54:15;12.00;98.80
42037;DHT22;75222;52.004;5.908;2024-02-04T11:56:42;12.00;98.70
42037;DHT22;75222;52.004;5.908;2024-02-04T11:59:08;12.00;98.80
42037;DHT22;75222;52.004;5.908;2024-02-04T12:01:35;12.00;98.90
42037;DHT22;75222;52.004;5.908;2024-02-04T12:04:15;12.10;98.90
42037;DHT22;75222;52.004;5.908;2024-02-04T12:06:42;12.10;98.90
42037;DHT22;75222;52.004;5.908;2024-02-04T12:09:10;12.00;98.90
42037;DHT22;75222;52.004;5.908;2024-02-04T12:11:37;12.10;98.90
42037;DHT22;75222;52.004;5.908;2024-02-04T12:14:07;12.00;98.90
42037;DHT22;75222;52.004;5.908;2024-02-04T12:16:33;12.00;99.00
42037;DHT22;75222;52.004;5.908;2024-02-04T12:19:01;12.00;99.20
42037;DHT22;75222;52.004;5.908;2024-02-04T12:21:28;11.90;99.20
42037;DHT22;75222;52.004;5.908;2024-02-04T12:23:54;12.00;99.30
42037;DHT22;75222;52.004;5.908;2024-02-04T12:26:21;11.90;99.30
42037;DHT22;75222;52.004;5.908;2024-02-04T12:28:47;11.90;99.30
42037;DHT22;75222;52.004;5.908;2024-02-04T12:31:25;11.90;99.50
42037;DHT22;75222;52.004;5.908;2024-02-04T12:34:01;11.90;99.60
42037;DHT22;75222;52.004;5.908;2024-02-04T12:36:30;11.80;99.60
42037;DHT22;75222;52.004;5.908;2024-02-04T12:38:58;11.80;99.70
42037;DHT22;75222;52.004;5.908;2024-02-04T12:41:24;11.80;99.70
42037;DHT22;75222;52.004;5.908;2024-02-04T12:43:58;11.80;99.70
42037;DHT22;75222;52.004;5.908;2024-02-04T12:46:24;11.80;99.80
42037;DHT22;75222;52.004;5.908;2024-02-04T12:48:57;11.80;99.90
42037;DHT22;75222;52.004;5.908;2024-02-04T12:51:28;11.80;99.90
42037;DHT22;75222;52.004;5.908;2024-02-04T12:54:10;11.80;99.90
42037;DHT22;75222;52.004;5.908;2024-02-04T12:59:05;11.80;99.90
42037;DHT22;75222;52.004;5.908;2024-02-04T13:01:31;11.80;99.90
42037;DHT22;75222;52.004;5.908;2024-02-04T13:03:56;11.80;99.90
42037;DHT22;75222;52.004;5.908;2024-02-04T13:06:22;11.80;99.90
42037;DHT22;75222;52.004;5.908;2024-02-04T13:08:47;11.80;99.90
42037;DHT22;75222;52.004;5.908;2024-02-04T13:11:19;11.80;99.90
42037;DHT22;75222;52.004;5.908;2024-02-04T13:13:45;11.80;99.90
42037;DHT22;75222;52.004;5.908;2024-02-04T13:16:11;11.80;99.90
42037;DHT22;75222;52.004;5.908;2024-02-04T13:18:36;11.80;99.90
42037;DHT22;75222;52.004;5.908;2024-02-04T13:21:02;11.70;99.90
42037;DHT22;75222;52.004;5.908;2024-02-04T13:23:28;11.80;99.90
42037;DHT22;75222;52.004;5.908;2024-02-04T13:25:53;11.80;99.90
42037;DHT22;75222;52.004;5.908;2024-02-04T13:28:19;11.70;99.90
42037;DHT22;75222;52.004;5.908;2024-02-04T13:30:44;11.80;99.90
42037;DHT22;75222;52.004;5.908;2024-02-04T13:33:10;11.80;99.90
42037;DHT22;75222;52.004;5.908;2024-02-04T13:35:36;11.80;99.90
42037;DHT22;75222;52.004;5.908;2024-02-04T13:38:01;11.80;99.90
42037;DHT22;75222;52.004;5.908;2024-02-04T13:40:27;11.80;99.90
42037;DHT22;75222;52.004;5.908;2024-02-04T13:42:53;11.70;99.90
42037;DHT22;75222;52.004;5.908;2024-02-04T13:45:19;11.70;99.90
42037;DHT22;75222;52.004;5.908;2024-02-04T13:47:45;11.80;99.90
42037;DHT22;75222;52.004;5.908;2024-02-04T13:50:11;11.70;99.90
42037;DHT22;75222;52.004;5.908;2024-02-04T13:52:37;11.70;99.90
42037;DHT22;75222;52.004;5.908;2024-02-04T13:55:03;11.70;99.90
42037;DHT22;75222;52.004;5.908;2024-02-04T13:57:33;11.70;99.90
42037;DHT22;75222;52.004;5.908;2024-02-04T13:59:59;11.70;99.90
42037;DHT22;75222;52.004;5.908;2024-02-04T14:02:24;11.70;99.90
42037;DHT22;75222;52.004;5.908;2024-02-04T14:04:52;11.80;99.90
42037;DHT22;75222;52.004;5.908;2024-02-04T14:07:18;11.80;99.90
42037;DHT22;75222;52.004;5.908;2024-02-04T14:09:43;11.80;99.90
42037;DHT22;75222;52.004;5.908;2024-02-04T14:12:09;11.80;99.90
42037;DHT22;75222;52.004;5.908;2024-02-04T14:14:36;11.80;99.90
42037;DHT22;75222;52.004;5.908;2024-02-04T14:17:02;11.80;99.90
42037;DHT22;75222;52.004;5.908;2024-02-04T14:19:28;11.80;99.90
42037;DHT22;75222;52.004;5.908;2024-02-04T14:21:54;11.90;99.90
42037;DHT22;75222;52.004;5.908;2024-02-04T14:24:20;11.80;99.90
42037;DHT22;75222;52.004;5.908;2024-02-04T14:26:45;11.80;99.90
42037;DHT22;75222;52.004;5.908;2024-02-04T14:29:11;11.80;99.90
42037;DHT22;75222;52.004;5.908;2024-02-04T14:31:36;11.80;99.90
42037;DHT22;75222;52.004;5.908;2024-02-04T14:34:02;11.80;99.90
42037;DHT22;75222;52.004;5.908;2024-02-04T14:36:27;11.80;99.90
42037;DHT22;75222;52.004;5.908;2024-02-04T14:38:53;11.80;99.90
42037;DHT22;75222;52.004;5.908;2024-02-04T14:41:19;11.80;99.90
42037;DHT22;75222;52.004;5.908;2024-02-04T14:43:44;11.80;99.90
42037;DHT22;75222;52.004;5.908;2024-02-04T14:46:10;11.80;99.90
42037;DHT22;75222;52.004;5.908;2024-02-04T14:48:38;11.80;99.90
42037;DHT22;75222;52.004;5.908;2024-02-04T14:51:05;11.80;99.90
42037;DHT22;75222;52.004;5.908;2024-02-04T14:53:30;11.80;99.90
42037;DHT22;75222;52.004;5.908;2024-02-04T14:55:56;11.80;99.90
42037;DHT22;75222;52.004;5.908;2024-02-04T14:58:22;11.80;99.90
42037;DHT22;75222;52.004;5.908;2024-02-04T15:00:48;11.80;99.90
42037;DHT22;75222;52.004;5.908;2024-02-04T15:03:14;11.80;99.90
42037;DHT22;75222;52.004;5.908;2024-02-04T15:05:43;11.80;99.90
42037;DHT22;75222;52.004;5.908;2024-02-04T15:08:08;11.80;99.90
42037;DHT22;75222;52.004;5.908;2024-02-04T15:10:34;11.80;99.90
42037;DHT22;75222;52.004;5.908;2024-02-04T15:13:00;11.80;99.90
42037;DHT22;75222;52.004;5.908;2024-02-04T15:15:26;11.80;99.90
42037;DHT22;75222;52.004;5.908;2024-02-04T15:17:52;11.90;99.90
42037;DHT22;75222;52.004;5.908;2024-02-04T15:20:18;11.90;99.90
42037;DHT22;75222;52.004;5.908;2024-02-04T15:22:47;11.90;99.90
42037;DHT22;75222;52.004;5.908;2024-02-04T15:25:14;11.90;99.90
42037;DHT22;75222;52.004;5.908;2024-02-04T15:27:44;11.90;99.90
42037;DHT22;75222;52.004;5.908;2024-02-04T15:30:14;11.90;99.90
42037;DHT22;75222;52.004;5.908;2024-02-04T15:32:39;11.80;99.90
42037;DHT22;75222;52.004;5.908;2024-02-04T15:35:06;11.90;99.90
42037;DHT22;75222;52.004;5.908;2024-02-04T15:37:32;11.90;99.90